Time;durP1;ratioP1;P1;durP2;ratioP2;P2;SDS_P1;SDS_P2;PMS_P1;PMS_P2;Temp;Humidity;BMP_temperature;BMP_pressure;BME280_temperature;BME280_humidity;BME280_pressure;Samples;Min_cycle;Max_cycle;Signal;HPM_P1;HPM_P2
2023/02/20 00:00:28;;;;;;;12.10;7.05;;;;;;;-11.79;73.32;98092.56;4957667;28;20043;-75
2023/02/20 00:02:54;;;;;;;22.20;12.13;;;;;;;-11.73;73.04;98089.94;4940407;29;20043;-75
2023/02/20 00:05:20;;;;;;;17.73;7.82;;;;;;;-11.73;73.06;98089.94;4956025;28;20419;-75
2023/02/20 00:07:46;;;;;;;18.38;8.07;;;;;;;-11.71;72.80;98079.59;4956150;29;20071;-75
2023/02/20 00:10:13;;;;;;;21.00;11.13;;;;;;;-11.77;72.82;98080.50;4955992;29;20039;-75
2023/02/20 00:12:38;;;;;;;23.67;11.60;;;;;;;-11.68;73.06;98080.41;4924388;29;20412;-75
2023/02/20 00:15:05;;;;;;;20.00;10.45;;;;;;;-11.65;73.07;98082.97;4972033;28;20054;-77
2023/02/20 00:17:31;;;;;;;22.02;10.77;;;;;;;-11.66;73.37;98073.50;4956126;28;20039;-75
2023/02/20 00:19:57;;;;;;;34.65;10.75;;;;;;;-11.54;73.01;98063.06;4955835;28;20043;-77
2023/02/20 00:22:24;;;;;;;17.90;9.07;;;;;;;-11.56;73.32;98075.09;4955780;28;20051;-77
2023/02/20 00:24:50;;;;;;;21.05;9.48;;;;;;;-11.58;73.19;98066.56;4923920;29;20047;-76
2023/02/20 00:27:16;;;;;;;26.60;9.32;;;;;;;-11.40;73.46;98067.19;4956158;28;20050;-76
2023/02/20 00:29:44;;;;;;;17.23;8.32;;;;;;;-11.40;73.20;98065.44;4956939;28;20108;-75
2023/02/20 00:32:09;;;;;;;20.48;10.15;;;;;;;-11.43;73.81;98057.78;4955727;28;20047;-76
2023/02/20 00:34:35;;;;;;;24.60;10.48;;;;;;;-11.31;73.94;98051.59;4971805;28;20494;-75
2023/02/20 00:37:01;;;;;;;27.48;12.80;;;;;;;-11.22;73.66;98063.50;4956756;29;20178;-75
2023/02/20 00:39:28;;;;;;;19.35;9.90;;;;;;;-11.12;73.38;98050.47;4971501;28;20130;-74
2023/02/20 00:41:57;;;;;;;24.13;11.27;;;;;;;-11.12;73.56;98047.88;4971590;28;20047;-75
2023/02/20 00:44:24;;;;;;;19.65;7.50;;;;;;;-10.99;73.56;98055.44;4955486;28;20097;-75
2023/02/20 00:46:50;;;;;;;25.00;11.38;;;;;;;-10.93;73.18;98050.19;4971392;28;20218;-75
2023/02/20 00:49:16;;;;;;;17.70;7.72;;;;;;;-10.85;73.34;98053.50;4955499;28;20046;-75
2023/02/20 00:51:45;;;;;;;15.65;9.07;;;;;;;-10.80;73.66;98046.53;4971169;28;20184;-75
2023/02/20 00:54:11;;;;;;;17.50;8.95;;;;;;;-10.82;73.81;98044.00;4955459;29;20051;-75
2023/02/20 00:56:36;;;;;;;29.73;9.07;;;;;;;-10.79;73.22;98032.78;4956400;28;20049;-74
2023/02/20 00:59:02;;;;;;;13.60;7.72;;;;;;;-10.80;73.67;98036.22;4965790;28;20145;-75
2023/02/20 01:01:29;;;;;;;19.38;10.13;;;;;;;-10.84;73.81;98044.88;4971405;28;20047;-75
2023/02/20 01:03:54;;;;;;;12.55;7.68;;;;;;;-10.91;73.95;98043.25;4956266;28;20047;-75
2023/02/20 01:06:20;;;;;;;28.50;10.23;;;;;;;-10.92;74.33;98049.31;4922951;28;20052;-75
2023/02/20 01:08:46;;;;;;;16.48;8.43;;;;;;;-10.95;74.30;98036.44;4971037;28;20093;-75
2023/02/20 01:11:12;;;;;;;14.23;8.13;;;;;;;-10.78;74.36;98039.63;4956512;28;20039;-75
2023/02/20 01:13:38;;;;;;;15.32;7.28;;;;;;;-10.92;74.78;98039.84;4955096;28;20094;-76
2023/02/20 01:16:06;;;;;;;17.73;9.00;;;;;;;-10.92;74.92;98020.91;4954825;28;20057;-75
2023/02/20 01:18:31;;;;;;;18.95;9.30;;;;;;;-10.81;74.88;98021.59;4954990;29;20094;-75
2023/02/20 01:20:57;;;;;;;17.42;9.13;;;;;;;-10.82;74.94;98019.91;4954682;28;20043;-75
2023/02/20 01:23:23;;;;;;;12.43;7.07;;;;;;;-10.76;74.46;98023.22;4923383;29;20450;-75
2023/02/20 01:25:49;;;;;;;24.02;12.07;;;;;;;-10.76;74.50;98022.38;4955626;28;20043;-76
2023/02/20 01:28:15;;;;;;;13.52;8.00;;;;;;;-10.72;74.91;98029.19;4970544;28;20138;-74
2023/02/20 01:30:41;;;;;;;25.90;10.18;;;;;;;-10.72;74.57;98018.84;4954500;28;20070;-75
2023/02/20 01:33:08;;;;;;;18.30;9.48;;;;;;;-10.68;74.37;98022.25;4955761;28;20043;-76
2023/02/20 01:35:35;;;;;;;19.42;9.15;;;;;;;-10.61;73.94;98027.28;4954327;28;20138;-76
2023/02/20 01:38:05;;;;;;;22.00;8.75;;;;;;;-10.68;74.50;98030.88;4954607;28;20051;-76
2023/02/20 01:40:33;;;;;;;21.23;10.00;;;;;;;-10.56;74.30;98028.06;4954759;28;20047;-75
2023/02/20 01:43:02;;;;;;;18.65;10.73;;;;;;;-10.55;74.36;98028.91;4954436;28;20054;-76
2023/02/20 01:45:35;;;;;;;20.58;8.85;;;;;;;-10.46;73.98;98022.75;4970448;28;20039;-76
2023/02/20 01:48:01;;;;;;;19.23;9.38;;;;;;;-10.57;74.25;98021.22;4970327;28;20082;-76
2023/02/20 01:50:41;;;;;;;31.55;11.35;;;;;;;-10.52;74.65;98021.97;4955387;29;20184;-76
2023/02/20 01:53:12;;;;;;;21.50;9.57;;;;;;;-10.59;75.05;98019.53;4970340;28;20526;-75
2023/02/20 01:55:47;;;;;;;23.13;11.27;;;;;;;-10.58;75.19;98016.91;4938188;29;20043;-75
2023/02/20 01:58:19;;;;;;;23.15;10.88;;;;;;;-10.41;74.87;98018.38;4958142;28;20096;-75
2023/02/20 02:00:45;;;;;;;19.63;9.98;;;;;;;-10.36;74.89;98026.88;4953867;28;20106;-76
2023/02/20 02:03:17;;;;;;;27.48;12.25;;;;;;;-10.39;75.04;98019.16;4954165;28;20043;-76
2023/02/20 02:05:47;;;;;;;22.08;8.90;;;;;;;-10.46;75.18;98015.00;4954282;28;20392;-76
2023/02/20 02:08:15;;;;;;;23.63;11.35;;;;;;;-10.45;75.18;98011.56;4922394;29;20078;-75
2023/02/20 02:11:02;;;;;;;20.58;11.00;;;;;;;-10.42;75.56;98019.22;4953745;29;20126;-76
2023/02/20 02:13:29;;;;;;;25.33;11.55;;;;;;;-10.34;75.09;98015.63;4953589;28;20046;-76
2023/02/20 02:16:19;;;;;;;29.20;11.82;;;;;;;-10.32;75.10;98005.28;4953721;28;20047;-75
2023/02/20 02:19:17;;;;;;;32.35;9.25;;;;;;;-10.20;74.86;98012.75;4969919;28;20102;-76
2023/02/20 02:21:58;;;;;;;22.10;10.93;;;;;;;-10.31;74.93;97996.63;4953872;28;20051;-76
2023/02/20 02:24:36;;;;;;;33.65;11.63;;;;;;;-10.19;74.94;98005.84;4969998;28;20050;-75
2023/02/20 02:27:05;;;;;;;26.92;11.77;;;;;;;-10.18;75.21;98000.66;4953258;28;20093;-76
2023/02/20 02:30:01;;;;;;;28.40;12.65;;;;;;;-10.05;74.75;98001.28;4954827;29;20136;-76
2023/02/20 02:32:53;;;;;;;24.00;10.20;;;;;;;-10.12;74.85;97989.34;4953811;28;20039;-75
2023/02/20 02:35:49;;;;;;;16.98;7.32;;;;;;;-10.17;75.07;97984.28;4954970;28;20528;-75
2023/02/20 02:38:30;;;;;;;14.25;7.25;;;;;;;-10.18;75.21;97994.66;4969768;28;20047;-75
2023/02/20 02:41:21;;;;;;;19.00;10.75;;;;;;;-10.08;75.08;97989.28;4953502;29;20198;-75
2023/02/20 02:43:58;;;;;;;20.83;10.40;;;;;;;-10.07;75.11;97993.56;4954537;28;20047;-75
2023/02/20 02:46:56;;;;;;;17.85;9.13;;;;;;;-10.15;75.15;97994.59;4937216;29;20101;-75
2023/02/20 02:49:34;;;;;;;17.05;6.50;;;;;;;-10.14;75.46;97986.81;4954867;28;20106;-75
2023/02/20 02:52:02;;;;;;;24.58;11.90;;;;;;;-10.00;74.90;97983.97;4954758;29;20047;-75
2023/02/20 02:54:28;;;;;;;24.38;11.95;;;;;;;-10.06;75.15;97984.94;4969181;28;20043;-75
2023/02/20 02:57:22;;;;;;;20.42;11.52;;;;;;;-10.14;75.50;97986.81;4954463;28;20062;-75
2023/02/20 03:00:03;;;;;;;16.30;7.88;;;;;;;-10.14;75.67;97983.38;4973750;28;20047;-77
2023/02/20 03:02:35;;;;;;;22.25;10.38;;;;;;;-10.00;75.22;97968.47;4974097;28;20081;-75
2023/02/20 03:05:04;;;;;;;20.38;10.48;;;;;;;-10.07;74.83;97975.47;4974233;28;20043;-74
2023/02/20 03:07:33;;;;;;;31.00;12.85;;;;;;;-10.02;74.86;97971.06;4974483;28;20051;-77
2023/02/20 03:10:19;;;;;;;39.47;14.65;;;;;;;-10.01;74.80;97974.50;4974082;28;20182;-75
2023/02/20 03:12:49;;;;;;;14.20;8.70;;;;;;;-10.09;74.83;97971.22;4974027;28;20058;-75
2023/02/20 03:15:36;;;;;;;23.50;10.43;;;;;;;-10.23;75.04;97966.28;4973159;28;20561;-76
2023/02/20 03:18:21;;;;;;;20.10;9.68;;;;;;;-10.23;75.39;97979.22;4957174;28;20050;-76
2023/02/20 03:20:55;;;;;;;37.10;15.30;;;;;;;-10.20;75.12;97989.50;4972819;28;20047;-75
2023/02/20 03:23:30;;;;;;;14.23;8.15;;;;;;;-10.11;75.36;97979.00;4972987;28;20050;-76
2023/02/20 03:26:01;;;;;;;19.05;8.93;;;;;;;-10.13;75.04;97983.34;4976493;28;20043;-75
2023/02/20 03:28:35;;;;;;;24.20;10.18;;;;;;;-10.16;75.12;97978.22;4977164;28;20542;-77
2023/02/20 03:31:10;;;;;;;29.40;11.43;;;;;;;-10.11;74.73;97983.31;4960936;28;20407;-75
2023/02/20 03:45:35;;;;;;;19.00;9.25;;;;;;;-10.29;75.63;97992.31;4991993;28;19922;-79
2023/02/20 03:48:09;;;;;;;19.50;11.45;;;;;;;-10.37;75.61;97989.84;4975780;28;20054;-78
2023/02/20 03:50:35;;;;;;;19.40;8.13;;;;;;;-10.29;75.44;97997.47;4959496;28;20049;-76
2023/02/20 03:53:01;;;;;;;25.60;8.98;;;;;;;-10.18;75.52;98005.00;4975283;28;20035;-78
2023/02/20 03:55:27;;;;;;;22.05;11.25;;;;;;;-10.15;75.21;98016.13;4975748;28;20043;-76
2023/02/20 03:57:59;;;;;;;24.23;10.98;;;;;;;-10.22;75.09;98009.38;4956080;28;20117;-75
2023/02/20 04:00:31;;;;;;;28.05;11.55;;;;;;;-10.10;75.25;98024.63;4956218;29;20502;-74
2023/02/20 04:03:04;;;;;;;33.95;13.82;;;;;;;-9.94;74.84;98017.44;4972170;28;20046;-76
2023/02/20 04:05:39;;;;;;;13.50;7.80;;;;;;;-9.88;74.13;98024.22;4955857;28;20047;-74
2023/02/20 04:08:34;;;;;;;33.22;13.77;;;;;;;-9.89;73.90;98023.38;4956093;28;20487;-76
2023/02/20 04:11:16;;;;;;;24.75;10.82;;;;;;;-9.80;73.63;98027.50;4946266;29;20563;-77
2023/02/20 04:13:43;;;;;;;24.25;12.25;;;;;;;-9.91;73.66;98019.97;4955814;29;20055;-76
2023/02/20 04:16:10;;;;;;;22.33;10.68;;;;;;;-9.99;73.82;98010.66;4954844;28;20051;-75
2023/02/20 04:18:37;;;;;;;15.65;9.90;;;;;;;-9.91;73.55;98006.19;4936492;28;20051;-76
2023/02/20 04:21:13;;;;;;;43.45;15.30;;;;;;;-9.82;73.61;98009.44;4952844;29;20043;-75
2023/02/20 04:23:44;;;;;;;26.70;12.20;;;;;;;-9.88;74.00;98008.72;4952680;29;20044;-75
2023/02/20 04:26:20;;;;;;;21.27;10.55;;;;;;;-9.76;73.86;98008.47;4936786;28;20395;-77
2023/02/20 04:28:48;;;;;;;27.13;12.10;;;;;;;-9.77;73.88;98013.69;4952919;28;20118;-75
2023/02/20 04:31:18;;;;;;;22.02;10.55;;;;;;;-9.79;73.89;98003.34;4936388;29;20079;-76
2023/02/20 04:33:45;;;;;;;19.80;10.73;;;;;;;-9.70;74.14;98003.19;4920655;29;20042;-75
2023/02/20 04:36:20;;;;;;;20.40;10.32;;;;;;;-9.76;73.94;98011.06;4951828;28;20048;-75
2023/02/20 04:38:47;;;;;;;32.08;12.68;;;;;;;-9.66;74.43;97997.06;4952312;29;20051;-75
2023/02/20 04:41:17;;;;;;;23.95;10.73;;;;;;;-9.56;73.85;98001.13;4954920;28;20138;-76
2023/02/20 04:43:43;;;;;;;21.27;9.10;;;;;;;-9.38;73.69;98004.22;4948436;28;20130;-74
2023/02/20 04:46:09;;;;;;;26.50;10.77;;;;;;;-9.32;73.45;97993.75;4962878;28;20135;-76
2023/02/20 04:48:35;;;;;;;21.13;9.13;;;;;;;-9.35;73.23;97999.81;4952035;29;20499;-76
2023/02/20 04:51:02;;;;;;;29.83;12.63;;;;;;;-9.30;73.51;98004.91;4952012;28;20051;-78
2023/02/20 04:53:28;;;;;;;21.20;11.55;;;;;;;-9.29;73.27;98001.41;4952329;29;20052;-77
2023/02/20 04:55:53;;;;;;;26.60;11.40;;;;;;;-9.29;73.15;97998.81;4936021;28;20044;-77
2023/02/20 04:58:22;;;;;;;21.75;11.20;;;;;;;-9.34;73.38;97995.50;4960576;28;20059;-76
2023/02/20 05:01:02;;;;;;;24.10;11.48;;;;;;;-9.01;73.04;97990.44;4960580;28;20077;-76
2023/02/20 05:03:28;;;;;;;38.65;15.70;;;;;;;-8.94;72.61;97999.78;4942029;28;20081;-78
2023/02/20 05:05:54;;;;;;;33.15;15.18;;;;;;;-8.97;72.33;98005.03;4957947;28;20047;-75
2023/02/20 05:08:19;;;;;;;28.73;13.43;;;;;;;-9.07;72.52;97997.44;4970700;28;20051;-75
2023/02/20 05:10:45;;;;;;;38.75;16.15;;;;;;;-8.87;72.31;98009.09;4985982;28;20050;-76
2023/02/20 05:13:11;;;;;;;35.90;15.98;;;;;;;-8.76;72.32;97998.47;4970828;28;20046;-77
2023/02/20 05:15:37;;;;;;;24.02;11.15;;;;;;;-8.74;71.44;98004.47;4987147;28;20142;-76
2023/02/20 05:18:03;;;;;;;55.08;21.73;;;;;;;-8.67;72.04;98009.47;4987083;28;20078;-76
2023/02/20 05:23:13;;;;;;;36.55;16.77;;;;;;;-8.61;71.25;98005.88;4970638;28;20046;-77
2023/02/20 05:25:39;;;;;;;55.35;20.23;;;;;;;-8.56;71.03;97996.25;4986835;28;20134;-75
2023/02/20 05:28:07;;;;;;;43.70;19.50;;;;;;;-8.49;70.85;98002.97;4955767;28;20043;-76
2023/02/20 05:30:32;;;;;;;35.67;14.50;;;;;;;-8.47;70.55;98002.94;4986405;28;20813;-76
2023/02/20 05:32:58;;;;;;;38.33;17.02;;;;;;;-8.50;69.87;98006.44;4986643;28;20054;-75
2023/02/20 05:35:24;;;;;;;44.30;13.75;;;;;;;-8.40;70.35;97996.69;4970505;28;20047;-76
2023/02/20 05:37:50;;;;;;;30.85;13.85;;;;;;;-8.38;70.22;97997.53;4986426;28;20047;-76
2023/02/20 05:40:15;;;;;;;39.70;14.68;;;;;;;-8.40;70.32;98000.13;4986688;28;20137;-76
2023/02/20 05:42:41;;;;;;;32.58;15.13;;;;;;;-8.19;69.68;98010.81;4955555;29;20074;-76
2023/02/20 05:45:08;;;;;;;25.98;12.82;;;;;;;-8.15;69.18;98013.28;4986462;28;20043;-75
2023/02/20 05:47:37;;;;;;;38.47;15.60;;;;;;;-8.23;68.87;98010.06;4969507;28;20035;-75
2023/02/20 05:50:03;;;;;;;;;;;;;;;-8.13;69.28;98015.84;4971295;28;20054;-76
2023/02/20 05:52:29;;;;;;;29.60;13.63;;;;;;;-7.82;69.00;98013.28;4986505;28;19918;-76
2023/02/20 05:54:54;;;;;;;39.88;14.52;;;;;;;-8.01;68.34;98018.13;4955554;28;20039;-76
2023/02/20 05:57:20;;;;;;;54.88;15.70;;;;;;;-7.93;68.55;98004.94;4988705;28;20483;-77
2023/02/20 05:59:46;;;;;;;31.17;16.23;;;;;;;-7.77;68.67;98003.63;4977647;28;20062;-76
2023/02/20 06:02:12;;;;;;;36.63;16.85;;;;;;;-7.66;68.29;98016.28;4975879;28;20043;-76
2023/02/20 06:04:38;;;;;;;31.08;11.75;;;;;;;-7.65;67.85;98016.22;4961062;28;20123;-74
2023/02/20 06:07:06;;;;;;;39.85;17.83;;;;;;;-7.53;68.04;98012.44;4975973;28;20093;-75
2023/02/20 06:09:33;;;;;;;23.95;11.05;;;;;;;-7.40;67.18;98002.56;4990748;28;20038;-76
2023/02/20 06:11:59;;;;;;;32.28;13.30;;;;;;;-7.38;66.83;98005.94;4973452;28;20051;-75
2023/02/20 06:14:26;;;;;;;34.45;15.07;;;;;;;-7.41;66.84;98000.84;4989535;28;20054;-76
2023/02/20 06:16:52;;;;;;;45.65;17.85;;;;;;;-7.05;67.16;97998.03;4973056;28;20419;-78
2023/02/20 06:19:23;;;;;;;26.77;12.60;;;;;;;-7.20;65.94;98002.81;4989299;28;20042;-76
2023/02/20 06:21:52;;;;;;;39.13;15.73;;;;;;;-7.00;66.73;98003.94;4941900;28;20134;-75
2023/02/20 06:24:18;;;;;;;28.02;13.50;;;;;;;-6.99;65.84;97992.66;4990219;28;20137;-76
2023/02/20 06:26:45;;;;;;;32.92;15.98;;;;;;;-7.06;65.88;97991.16;4956824;28;20043;-77
2023/02/20 06:29:13;;;;;;;34.15;16.70;;;;;;;-6.85;66.15;97991.31;4989045;28;20498;-76
2023/02/20 06:31:38;;;;;;;27.38;12.77;;;;;;;-6.92;65.64;97996.75;4973259;28;20043;-75
2023/02/20 06:34:06;;;;;;;30.08;14.73;;;;;;;-6.92;65.81;97996.75;4989396;28;20109;-79
2023/02/20 06:36:35;;;;;;;32.45;15.27;;;;;;;-6.70;65.68;97995.16;4973949;28;20042;-77
2023/02/20 06:39:01;;;;;;;32.87;13.90;;;;;;;-6.64;65.27;98002.78;4972677;28;20049;-78
2023/02/20 06:41:27;;;;;;;32.97;14.75;;;;;;;-6.61;65.42;97997.47;4988893;28;20051;-76
2023/02/20 06:43:53;;;;;;;39.05;16.27;;;;;;;-6.55;65.25;98003.38;4974081;28;20127;-77
2023/02/20 06:46:21;;;;;;;42.30;17.90;;;;;;;-6.09;64.95;97987.06;4973091;28;20047;-75
2023/02/20 06:48:50;;;;;;;55.20;17.50;;;;;;;-6.16;64.51;97983.84;4989217;28;20129;-76
2023/02/20 06:51:21;;;;;;;37.80;13.32;;;;;;;-6.25;64.44;97986.72;4973936;28;20059;-76
2023/02/20 06:53:48;;;;;;;37.67;16.40;;;;;;;-6.24;64.84;97984.97;4989047;28;20047;-76
2023/02/20 06:56:20;;;;;;;33.30;14.98;;;;;;;-6.15;64.75;97989.88;4972519;28;20054;-76
2023/02/20 06:58:47;;;;;;;44.25;16.42;;;;;;;-6.03;64.43;97975.59;4976244;28;20059;-77
2023/02/20 07:01:14;;;;;;;38.90;15.75;;;;;;;-6.04;64.75;97974.75;4993022;28;20050;-78
2023/02/20 07:03:40;;;;;;;36.30;17.38;;;;;;;-6.02;64.61;97972.91;4977680;28;20046;-75
2023/02/20 07:06:06;;;;;;;29.27;13.07;;;;;;;-5.96;64.47;97967.50;4960371;28;20043;-75
2023/02/20 07:08:32;;;;;;;41.10;17.33;;;;;;;-5.93;64.68;97976.97;4992793;28;20398;-75
2023/02/20 07:10:58;;;;;;;46.25;16.88;;;;;;;-5.64;64.36;97979.34;4977409;28;20042;-75
2023/02/20 07:13:24;;;;;;;45.35;16.70;;;;;;;-5.55;63.82;97979.91;4976415;28;20046;-76
2023/02/20 07:15:49;;;;;;;38.42;18.95;;;;;;;-4.98;64.33;97978.56;4992346;28;20049;-77
2023/02/20 07:18:22;;;;;;;44.10;17.92;;;;;;;-4.73;63.21;97974.09;4992306;28;20054;-75
2023/02/20 07:20:55;;;;;;;42.63;16.88;;;;;;;-4.75;62.38;97962.00;4944578;28;20046;-75
2023/02/20 07:23:22;;;;;;;31.30;14.32;;;;;;;-4.59;61.76;97967.44;4976125;28;20042;-77
2023/02/20 07:25:49;;;;;;;36.63;15.18;;;;;;;-4.60;61.50;97964.00;4976242;28;20078;-76
2023/02/20 07:28:17;;;;;;;40.50;16.67;;;;;;;-4.62;61.46;97954.56;4992371;28;20043;-77
2023/02/20 07:30:43;;;;;;;41.33;14.90;;;;;;;-4.51;61.25;97963.63;4977246;28;20038;-76
2023/02/20 07:33:09;;;;;;;42.33;17.00;;;;;;;-4.47;61.35;97967.81;4944113;28;20129;-75
2023/02/20 07:35:35;;;;;;;38.05;14.23;;;;;;;-4.49;60.63;97963.56;4992156;28;20117;-75
2023/02/20 07:38:04;;;;;;;49.10;15.77;;;;;;;-4.30;61.12;97967.09;4975931;28;20047;-75
2023/02/20 07:40:30;;;;;;;50.03;14.18;;;;;;;-4.20;59.97;97963.19;4975845;28;20047;-76
2023/02/20 07:42:55;;;;;;;65.15;15.55;;;;;;;-4.21;60.31;97971.94;4975745;28;20134;-76
2023/02/20 07:45:22;;;;;;;44.17;16.50;;;;;;;-3.73;61.13;97962.84;4991791;28;20046;-77
2023/02/20 07:47:47;;;;;;;34.00;15.10;;;;;;;-3.04;60.12;97969.31;4975870;28;20086;-75
2023/02/20 07:50:14;;;;;;;37.33;14.45;;;;;;;-2.84;58.55;97969.22;4975811;28;20463;-77
2023/02/20 07:52:40;;;;;;;36.95;13.57;;;;;;;-2.83;57.65;97965.66;4975489;28;20133;-75
2023/02/20 07:55:07;;;;;;;37.17;14.25;;;;;;;-2.34;57.91;97978.97;4975585;28;20046;-76
2023/02/20 07:57:35;;;;;;;39.10;14.02;;;;;;;-1.93;57.15;97970.78;4975643;28;20097;-77
2023/02/20 08:00:00;;;;;;;36.08;14.05;;;;;;;-1.53;56.20;97972.19;4991807;28;20046;-77
2023/02/20 08:02:26;;;;;;;34.50;13.10;;;;;;;-1.44;55.62;97970.00;4975433;28;20051;-78
2023/02/20 08:04:52;;;;;;;28.70;11.57;;;;;;;-1.38;54.98;97965.28;4991729;28;20101;-76
2023/02/20 08:07:18;;;;;;;42.38;12.25;;;;;;;-1.52;54.05;97970.41;4975229;28;20454;-77
2023/02/20 08:09:46;;;;;;;34.88;12.13;;;;;;;-1.72;54.89;97969.69;4974404;28;20560;-76
2023/02/20 08:12:12;;;;;;;30.08;12.02;;;;;;;-1.44;55.42;97970.00;4975138;28;20096;-76
2023/02/20 08:14:38;;;;;;;32.97;14.50;;;;;;;-1.07;54.17;97963.59;4975308;28;20047;-78
2023/02/20 08:17:07;;;;;;;28.42;12.13;;;;;;;-1.10;53.65;97955.91;4975467;28;20092;-76
2023/02/20 08:19:33;;;;;;;26.75;11.63;;;;;;;-1.16;53.11;97964.13;4991190;28;20081;-75
2023/02/20 08:21:58;;;;;;;34.47;12.68;;;;;;;-1.05;53.72;97949.50;4976089;28;20045;-76
2023/02/20 08:24:24;;;;;;;30.92;13.07;;;;;;;-1.22;53.06;97945.16;4974919;28;20046;-77
2023/02/20 08:26:50;;;;;;;28.00;12.32;;;;;;;-1.03;54.63;97947.59;4974956;28;20049;-77
2023/02/20 08:29:16;;;;;;;26.05;11.55;;;;;;;-0.71;54.02;97949.34;4974731;28;20045;-76
2023/02/20 08:31:42;;;;;;;31.10;12.70;;;;;;;-0.77;53.65;97925.16;4990825;28;20047;-76
2023/02/20 08:34:08;;;;;;;26.08;11.75;;;;;;;-0.44;54.41;97939.06;4991153;28;20128;-77
2023/02/20 08:36:34;;;;;;;29.13;12.00;;;;;;;-0.60;52.56;97936.47;4974642;28;20574;-78
2023/02/20 08:39:01;;;;;;;30.52;13.63;;;;;;;-0.99;53.90;97943.88;4974814;28;20047;-77
2023/02/20 08:41:28;;;;;;;27.90;12.00;;;;;;;-1.14;52.77;97939.50;4991034;28;20074;-76
2023/02/20 08:43:54;;;;;;;29.13;14.15;;;;;;;-1.10;55.55;97942.78;4990820;28;20053;-77
2023/02/20 08:46:20;;;;;;;31.23;13.95;;;;;;;-1.08;53.68;97938.31;4974246;28;20043;-75
2023/02/20 08:48:46;;;;;;;36.15;15.65;;;;;;;-1.03;53.08;97933.66;4958212;28;20058;-77
2023/02/20 08:51:12;;;;;;;32.53;15.07;;;;;;;-0.76;55.56;97942.59;4990849;28;20042;-76
2023/02/20 08:53:39;;;;;;;35.75;15.38;;;;;;;-0.47;54.45;97947.97;4974372;28;20043;-76
2023/02/20 08:56:06;;;;;;;30.65;11.85;;;;;;;-0.37;54.88;97941.25;4975522;28;20129;-76
2023/02/20 08:58:31;;;;;;;40.85;14.20;;;;;;;-0.18;54.59;97942.81;4957760;28;20066;-77
2023/02/20 09:00:57;;;;;;;31.85;14.23;;;;;;;0.17;54.38;97938.91;4974382;28;20414;-77
2023/02/20 09:03:23;;;;;;;26.08;14.68;;;;;;;0.34;53.97;97940.53;4990313;28;20407;-77
2023/02/20 09:05:49;;;;;;;32.72;14.05;;;;;;;0.47;53.37;97941.47;4974434;28;20451;-76
2023/02/20 09:08:15;;;;;;;33.25;12.80;;;;;;;0.45;53.84;97948.59;4974541;28;20134;-76
2023/02/20 09:10:41;;;;;;;24.92;12.45;;;;;;;0.54;53.40;97939.31;4975926;28;20415;-77
2023/02/20 09:13:07;;;;;;;28.77;12.05;;;;;;;0.55;53.28;97938.34;4990469;28;20406;-77
2023/02/20 09:15:37;;;;;;;38.42;11.63;;;;;;;0.67;52.77;97937.59;4990556;28;20413;-76
2023/02/20 09:18:05;;;;;;;26.13;11.65;;;;;;;0.42;53.54;97943.53;4990249;28;20054;-76
2023/02/20 09:20:31;;;;;;;25.95;10.98;;;;;;;0.50;53.68;97935.19;4974101;28;20054;-78
2023/02/20 09:22:58;;;;;;;28.35;10.75;;;;;;;0.68;53.19;97934.03;4990292;28;20074;-77
2023/02/20 09:25:25;;;;;;;24.23;11.43;;;;;;;0.71;52.86;97938.25;4975182;28;20405;-76
2023/02/20 09:27:51;;;;;;;28.23;10.90;;;;;;;0.73;52.55;97926.69;4957811;28;20046;-75
2023/02/20 09:30:19;;;;;;;23.45;11.45;;;;;;;0.58;53.48;97930.28;4973800;28;20486;-76
2023/02/20 09:32:46;;;;;;;21.65;10.23;;;;;;;0.43;53.35;97939.97;4989932;28;20039;-74
2023/02/20 09:35:27;;;;;;;35.47;11.02;;;;;;;0.34;52.98;97929.16;4989951;28;20121;-77
2023/02/20 09:37:53;;;;;;;25.35;10.75;;;;;;;0.34;52.86;97937.03;4990225;28;20046;-76
2023/02/20 09:40:24;;;;;;;39.20;11.80;;;;;;;0.34;53.55;97934.41;4973710;28;20418;-75
2023/02/20 09:43:14;;;;;;;20.83;10.50;;;;;;;0.46;53.51;97944.19;4974835;28;20046;-76
2023/02/20 09:45:48;;;;;;;29.77;11.13;;;;;;;0.53;53.19;97945.50;4973888;28;20047;-76
2023/02/20 09:48:22;;;;;;;27.58;11.57;;;;;;;0.44;53.94;97933.75;4957612;28;20048;-75
2023/02/20 09:51:12;;;;;;;35.55;12.52;;;;;;;0.64;54.17;97942.19;4973458;28;20562;-77
2023/02/20 09:53:59;;;;;;;25.65;11.15;;;;;;;0.48;52.06;97942.28;4974523;28;20043;-77
2023/02/20 09:56:29;;;;;;;24.50;11.90;;;;;;;0.07;52.63;97940.38;4973450;28;20494;-77
2023/02/20 09:59:24;;;;;;;25.13;12.57;;;;;;;0.01;52.72;97938.16;4973208;28;20085;-76
2023/02/20 10:01:58;;;;;;;27.67;12.52;;;;;;;0.02;54.73;97939.84;4941885;28;20140;-77
2023/02/20 10:04:31;;;;;;;20.45;10.85;;;;;;;0.23;54.10;97935.94;4976494;28;20042;-77
2023/02/20 10:07:08;;;;;;;26.92;12.00;;;;;;;0.36;52.88;97937.81;4994013;28;20057;-78
2023/02/20 10:09:34;;;;;;;21.50;11.50;;;;;;;0.55;53.61;97938.34;4976685;28;20042;-77
2023/02/20 10:12:11;;;;;;;20.95;10.57;;;;;;;0.60;52.61;97938.94;4976230;28;20050;-75
2023/02/20 10:14:46;;;;;;;35.80;12.20;;;;;;;0.60;53.37;97944.19;4973631;28;20434;-77
2023/02/20 10:17:42;;;;;;;20.02;11.10;;;;;;;0.46;54.13;97939.78;4985670;28;20100;-76
2023/02/20 10:20:37;;;;;;;23.15;12.10;;;;;;;0.43;53.04;97957.53;4960051;28;20492;-78
2023/02/20 10:23:17;;;;;;;22.15;12.10;;;;;;;0.09;53.57;97962.19;4941373;28;20043;-81
2023/02/20 10:25:52;;;;;;;22.83;11.55;;;;;;;-0.36;54.02;97958.69;4960683;28;20043;-79
2023/02/20 10:28:22;;;;;;;22.40;11.73;;;;;;;-0.27;54.63;97958.13;4960100;28;20050;-76
2023/02/20 10:30:54;;;;;;;25.63;12.30;;;;;;;-0.18;54.03;97958.56;4993446;28;20168;-80
2023/02/20 10:33:46;;;;;;;31.58;13.38;;;;;;;-0.20;53.99;97968.31;4959889;28;20045;-76
2023/02/20 10:36:11;;;;;;;30.65;13.07;;;;;;;-0.40;54.64;97967.69;4960392;28;20466;-78
2023/02/20 10:38:46;;;;;;;53.55;16.98;;;;;;;-0.63;54.72;97962.91;4993482;28;20126;-77
2023/02/20 10:41:39;;;;;;;29.23;13.15;;;;;;;-0.79;54.68;97968.16;4993601;28;20066;-84
2023/02/20 10:44:20;;;;;;;21.70;10.68;;;;;;;-0.70;55.35;97956.31;4994093;28;20598;-78
2023/02/20 10:47:13;;;;;;;26.90;11.35;;;;;;;-0.76;55.07;97958.34;4943107;28;20042;-77
2023/02/20 10:49:56;;;;;;;26.60;11.57;;;;;;;-0.81;54.90;97959.53;4991324;28;20482;-76
2023/02/20 10:52:27;;;;;;;24.02;11.93;;;;;;;-0.99;55.06;97958.78;4975524;28;20564;-78
2023/02/20 10:55:08;;;;;;;55.83;13.77;;;;;;;-1.01;55.19;97953.63;4992874;28;20133;-78
2023/02/20 10:57:45;;;;;;;25.80;11.13;;;;;;;-1.10;55.38;97954.13;4975259;28;20108;-78
2023/02/20 11:00:21;;;;;;;24.75;11.13;;;;;;;-1.01;55.47;97948.38;4975161;28;20053;-78
2023/02/20 11:02:56;;;;;;;27.48;11.88;;;;;;;-0.89;55.48;97956.50;4975378;28;20045;-77
2023/02/20 11:05:26;;;;;;;21.60;10.95;;;;;;;-1.09;55.94;97947.09;4991764;28;20108;-77
2023/02/20 11:07:52;;;;;;;25.00;10.90;;;;;;;-1.01;55.80;97958.03;4976835;28;20045;-77
2023/02/20 11:10:19;;;;;;;19.75;10.15;;;;;;;-1.19;55.71;97948.56;4959172;28;20046;-76
2023/02/20 11:12:56;;;;;;;20.35;9.75;;;;;;;-1.15;55.73;97950.91;4975142;28;20502;-77
2023/02/20 11:15:24;;;;;;;18.05;9.60;;;;;;;-1.15;55.86;97955.31;4943494;28;20045;-77
2023/02/20 11:17:52;;;;;;;20.80;10.68;;;;;;;-1.21;56.25;97959.09;4975396;28;20050;-77
2023/02/20 11:20:44;;;;;;;18.98;10.10;;;;;;;-1.37;56.45;97961.72;4975189;28;20042;-78
2023/02/20 11:23:34;;;;;;;19.30;9.77;;;;;;;-1.54;56.89;97953.94;4959817;28;20065;-78
2023/02/20 11:26:19;;;;;;;21.52;9.40;;;;;;;-1.72;57.37;97953.97;4944632;28;20042;-77
2023/02/20 11:28:53;;;;;;;26.98;10.23;;;;;;;-1.66;57.81;97946.69;4976933;28;20042;-77
2023/02/20 11:31:21;;;;;;;22.88;10.50;;;;;;;-1.59;57.61;97948.06;4982186;28;20046;-77
2023/02/20 11:33:49;;;;;;;23.38;11.10;;;;;;;-1.64;57.77;97947.47;4993225;28;20066;-78
2023/02/20 11:36:22;;;;;;;17.83;11.07;;;;;;;-1.75;58.17;97950.66;4959334;28;20046;-78
2023/02/20 11:38:55;;;;;;;21.05;11.07;;;;;;;-1.71;58.09;97950.41;4991343;28;20048;-77
2023/02/20 11:41:25;;;;;;;19.50;10.82;;;;;;;-1.75;57.64;97956.75;4975491;28;20461;-83
2023/02/20 11:44:22;;;;;;;18.23;10.95;;;;;;;-1.59;58.22;97950.69;4943044;28;20042;-77
2023/02/20 11:47:10;;;;;;;15.93;8.80;;;;;;;-1.59;57.56;97946.28;4963864;28;20050;-78